Time;durP1;ratioP1;P1;durP2;ratioP2;P2;SDS_P1;SDS_P2;PMS_P1;PMS_P2;Temp;Humidity;BMP_temperature;BMP_pressure;BME280_temperature;BME280_humidity;BME280_pressure;Samples;Min_cycle;Max_cycle;Signal;HPM_P1;HPM_P2
2021/04/01 00:02:31;;;;;;;10.68;8.00;;;15.80;73.70;;;;;;5113622;28;20035;-41
2021/04/01 00:04:57;;;;;;;12.27;8.68;;;15.80;73.70;;;;;;5113993;28;20054;-40
2021/04/01 00:07:23;;;;;;;11.73;8.13;;;15.70;73.60;;;;;;5114370;28;20115;-40
2021/04/01 00:09:49;;;;;;;12.45;8.75;;;15.80;73.70;;;;;;5113909;28;20036;-41
2021/04/01 00:12:15;;;;;;;13.10;8.75;;;15.80;73.70;;;;;;5113255;28;20093;-39
2021/04/01 00:14:44;;;;;;;11.25;8.48;;;15.80;73.70;;;;;;5113950;28;20097;-40
2021/04/01 00:17:10;;;;;;;10.45;7.95;;;15.80;73.70;;;;;;5113587;28;20051;-41
2021/04/01 00:19:36;;;;;;;11.23;8.18;;;15.80;73.70;;;;;;5113762;28;20044;-41
2021/04/01 00:22:02;;;;;;;11.02;7.90;;;15.80;74.40;;;;;;5113368;28;20506;-40
2021/04/01 00:24:28;;;;;;;12.05;8.05;;;15.80;73.70;;;;;;5113533;28;20487;-41
2021/04/01 00:26:54;;;;;;;9.50;7.75;;;15.80;73.70;;;;;;5095281;28;20040;-40
2021/04/01 00:29:20;;;;;;;9.23;7.57;;;15.80;73.70;;;;;;5113650;28;20578;-41
2021/04/01 00:31:45;;;;;;;9.95;7.30;;;15.80;73.70;;;;;;5113257;28;20384;-39
2021/04/01 00:34:11;;;;;;;11.30;8.02;;;15.80;73.70;;;;;;5113183;28;20449;-41
2021/04/01 00:36:37;;;;;;;10.55;7.35;;;15.90;73.80;;;;;;5113467;28;20051;-40
2021/04/01 00:39:03;;;;;;;10.95;7.53;;;15.80;73.80;;;;;;5113872;28;20491;-41
2021/04/01 00:41:29;;;;;;;12.82;8.68;;;15.80;73.80;;;;;;5113069;28;20518;-41
2021/04/01 00:43:55;;;;;;;11.15;7.20;;;15.80;73.80;;;;;;5113325;28;20071;-38
2021/04/01 00:46:21;;;;;;;10.95;7.10;;;15.80;73.80;;;;;;5112850;27;20048;-40
2021/04/01 00:48:46;;;;;;;10.57;7.15;;;15.80;73.80;;;;;;5113461;28;20050;-40
2021/04/01 00:51:12;;;;;;;10.45;7.80;;;15.80;73.80;;;;;;5113244;28;20039;-39
2021/04/01 00:53:38;;;;;;;10.80;7.18;;;15.80;73.80;;;;;;5113254;28;20100;-42
2021/04/01 00:56:04;;;;;;;9.25;6.75;;;15.80;73.80;;;;;;5113313;28;20051;-40
2021/04/01 00:58:31;;;;;;;10.57;7.38;;;15.80;73.80;;;;;;5113332;28;20068;-41
2021/04/01 01:03:41;;;;;;;9.50;6.55;;;15.80;73.80;;;;;;5110585;28;20043;-39
2021/04/01 01:06:07;;;;;;;10.75;7.10;;;15.80;73.80;;;;;;5113215;28;20066;-42
2021/04/01 01:08:33;;;;;;;11.05;7.93;;;15.80;73.90;;;;;;5113261;28;20051;-41
2021/04/01 01:10:58;;;;;;;9.15;6.85;;;15.80;73.80;;;;;;5112912;28;20077;-40
2021/04/01 01:13:24;;;;;;;11.27;7.80;;;15.80;73.80;;;;;;5113261;28;20055;-41
2021/04/01 01:15:50;;;;;;;11.82;8.45;;;15.80;73.80;;;;;;5112694;28;20047;-39
2021/04/01 01:18:16;;;;;;;9.68;7.00;;;15.80;73.80;;;;;;5112353;28;20054;-40
2021/04/01 01:20:42;;;;;;;10.38;7.78;;;15.80;73.90;;;;;;5113316;28;20044;-38
2021/04/01 01:23:08;;;;;;;11.90;8.50;;;15.80;73.90;;;;;;5111272;28;20051;-41
2021/04/01 01:25:35;;;;;;;10.55;7.28;;;15.80;73.90;;;;;;5112879;28;20488;-42
2021/04/01 01:28:04;;;;;;;10.18;7.15;;;15.80;73.90;;;;;;5112837;28;20054;-43
2021/04/01 01:30:33;;;;;;;9.20;7.55;;;15.80;73.90;;;;;;5113118;28;20047;-40
2021/04/01 01:33:02;;;;;;;11.00;7.88;;;15.70;73.80;;;;;;5112635;28;20474;-40
2021/04/01 01:35:37;;;;;;;11.50;7.72;;;15.80;73.90;;;;;;5112762;28;20122;-41
2021/04/01 01:38:07;;;;;;;11.07;7.70;;;15.80;73.90;;;;;;5112562;28;20126;-39
2021/04/01 01:40:34;;;;;;;10.50;7.65;;;15.70;73.90;;;;;;5112787;28;20058;-40
2021/04/01 01:43:02;;;;;;;10.73;7.63;;;15.80;73.90;;;;;;5115926;28;20571;-38
2021/04/01 01:45:29;;;;;;;10.32;7.13;;;15.70;73.90;;;;;;5116805;28;20051;-40
2021/04/01 01:47:56;;;;;;;8.50;6.82;;;15.70;73.90;;;;;;5116441;27;20043;-41
2021/04/01 01:50:24;;;;;;;9.68;6.70;;;15.70;73.90;;;;;;5116653;28;20051;-41
2021/04/01 01:52:50;;;;;;;11.45;7.80;;;15.70;73.90;;;;;;5116713;28;20134;-40
2021/04/01 01:55:16;;;;;;;11.48;7.97;;;15.80;74.00;;;;;;5116913;28;20067;-40
2021/04/01 01:57:42;;;;;;;10.95;7.80;;;15.70;73.90;;;;;;5116448;28;20487;-40
2021/04/01 02:00:14;;;;;;;10.07;7.53;;;15.70;73.90;;;;;;5116705;28;20044;-40
2021/04/01 02:02:48;;;;;;;10.38;7.88;;;15.70;73.90;;;;;;5115241;28;20051;-42
2021/04/01 02:05:14;;;;;;;11.45;7.72;;;15.70;73.90;;;;;;5116291;28;20165;-41
2021/04/01 02:07:40;;;;;;;11.32;7.47;;;15.70;73.90;;;;;;5116799;28;20130;-41
2021/04/01 02:10:07;;;;;;;11.32;8.05;;;15.70;73.90;;;;;;5116527;28;20047;-43
2021/04/01 02:12:32;;;;;;;10.15;7.60;;;15.70;73.90;;;;;;5116336;28;20519;-38
2021/04/01 02:14:58;;;;;;;10.73;7.05;;;15.70;73.90;;;;;;5116275;28;20044;-41
2021/04/01 02:17:25;;;;;;;9.90;6.82;;;15.70;73.90;;;;;;5116079;28;20044;-41
2021/04/01 02:19:57;;;;;;;11.23;8.13;;;15.70;73.90;;;;;;5116204;28;20051;-42
2021/04/01 02:22:23;;;;;;;9.93;7.45;;;15.70;73.90;;;;;;5116232;28;20047;-41
2021/04/01 02:24:49;;;;;;;11.07;6.70;;;15.70;74.00;;;;;;5116158;28;20051;-40
2021/04/01 02:27:15;;;;;;;11.00;7.50;;;15.70;74.00;;;;;;5116264;28;20052;-39
2021/04/01 02:29:41;;;;;;;13.00;8.65;;;15.70;74.00;;;;;;5115792;28;20514;-42
2021/04/01 02:32:07;;;;;;;10.90;7.97;;;15.70;74.00;;;;;;5115906;28;20050;-41
2021/04/01 02:34:33;;;;;;;10.77;7.22;;;15.70;74.00;;;;;;5115558;28;20058;-43
2021/04/01 02:36:59;;;;;;;10.20;7.38;;;15.70;74.00;;;;;;5115734;28;20399;-41
2021/04/01 02:39:24;;;;;;;12.52;8.23;;;15.70;74.00;;;;;;5116221;28;20039;-41
2021/04/01 02:41:50;;;;;;;11.45;8.02;;;15.70;74.00;;;;;;5115611;27;20109;-43
2021/04/01 02:44:16;;;;;;;12.10;8.27;;;15.70;74.00;;;;;;5115489;28;20484;-41
2021/04/01 02:46:41;;;;;;;10.23;7.55;;;15.70;74.00;;;;;;5115826;28;20055;-41
2021/04/01 02:49:07;;;;;;;11.85;8.20;;;15.60;74.00;;;;;;5115569;28;20051;-39
2021/04/01 02:51:33;;;;;;;12.02;8.25;;;15.70;74.00;;;;;;5115368;28;20046;-42
2021/04/01 02:53:58;;;;;;;13.10;8.43;;;15.70;74.00;;;;;;5114695;28;20116;-41
2021/04/01 02:56:24;;;;;;;10.73;6.88;;;15.70;74.00;;;;;;5115414;28;20047;-43
2021/04/01 02:58:50;;;;;;;12.27;8.00;;;15.60;74.00;;;;;;5115256;28;20092;-41
2021/04/01 03:01:15;;;;;;;10.48;7.68;;;15.70;74.00;;;;;;5115037;28;20031;-38
2021/04/01 03:03:44;;;;;;;11.05;7.18;;;15.70;74.00;;;;;;5115670;28;20407;-42
2021/04/01 03:06:10;;;;;;;10.35;7.40;;;15.70;74.00;;;;;;5114569;28;20548;-38
2021/04/01 03:08:36;;;;;;;10.23;7.88;;;15.70;74.00;;;;;;5114801;28;20067;-41
2021/04/01 03:11:02;;;;;;;11.02;7.57;;;15.70;74.00;;;;;;5114776;28;20070;-40
2021/04/01 03:13:28;;;;;;;10.30;7.63;;;15.70;74.00;;;;;;5115170;28;20082;-39
2021/04/01 03:15:53;;;;;;;11.55;8.13;;;15.70;74.00;;;;;;5114850;28;20428;-38
2021/04/01 03:18:20;;;;;;;11.73;7.88;;;15.70;74.10;;;;;;5114928;28;20055;-40
2021/04/01 03:20:47;;;;;;;11.35;7.68;;;15.70;74.00;;;;;;5114858;28;20100;-41
2021/04/01 03:23:13;;;;;;;12.30;8.57;;;15.80;74.10;;;;;;5114950;28;20398;-42
2021/04/01 03:25:39;;;;;;;12.40;7.97;;;15.60;74.00;;;;;;5114938;28;20040;-42
2021/04/01 03:28:06;;;;;;;13.05;8.25;;;15.70;74.10;;;;;;5114510;28;20108;-41
2021/04/01 03:30:32;;;;;;;11.02;8.27;;;15.70;74.10;;;;;;5114896;28;20050;-42
2021/04/01 03:32:58;;;;;;;9.50;7.07;;;15.70;74.10;;;;;;5114875;28;20047;-41
2021/04/01 03:35:24;;;;;;;10.50;7.38;;;15.60;74.10;;;;;;5114931;28;20101;-39
2021/04/01 03:37:54;;;;;;;11.27;8.00;;;15.60;74.10;;;;;;5114021;28;20476;-41
2021/04/01 03:40:21;;;;;;;13.70;8.15;;;15.70;74.10;;;;;;5114365;28;20044;-41
2021/04/01 03:42:47;;;;;;;11.60;7.72;;;15.60;74.10;;;;;;5114288;28;20078;-41
2021/04/01 03:45:15;;;;;;;11.18;7.78;;;15.70;74.10;;;;;;5112830;28;20048;-42
2021/04/01 03:47:42;;;;;;;10.73;7.72;;;15.60;74.10;;;;;;5114392;28;20188;-43
2021/04/01 03:50:10;;;;;;;11.55;7.97;;;15.60;74.10;;;;;;5113210;28;20056;-41
2021/04/01 03:52:37;;;;;;;11.98;8.02;;;15.60;74.10;;;;;;5114253;28;20051;-42
2021/04/01 03:57:40;;;;;;;11.63;7.88;;;15.70;74.20;;;;;;5094127;28;20403;-40
2021/04/01 04:00:21;;;;;;;10.98;7.78;;;15.60;74.10;;;;;;5108694;28;20039;-40
2021/04/01 04:03:31;;;;;;;10.73;7.22;;;15.70;74.20;;;;;;5114146;27;20051;-41
2021/04/01 04:16:21;;;;;;;9.75;7.43;;;15.60;74.20;;;;;;5051078;28;20110;-41
2021/04/01 04:18:47;;;;;;;11.35;7.72;;;15.60;74.20;;;;;;5051153;28;20439;-40
2021/04/01 04:21:13;;;;;;;12.55;8.43;;;15.60;74.20;;;;;;5050611;28;20045;-38
2021/04/01 04:23:44;;;;;;;10.77;7.85;;;15.60;74.20;;;;;;5050856;28;20504;-41
2021/04/01 04:26:10;;;;;;;11.60;7.82;;;15.60;74.20;;;;;;5050821;28;20049;-42
2021/04/01 04:28:38;;;;;;;10.48;7.85;;;15.60;74.20;;;;;;5051109;28;20059;-41
2021/04/01 04:31:04;;;;;;;12.48;8.70;;;15.60;74.20;;;;;;5050755;28;20049;-43
2021/04/01 04:33:30;;;;;;;12.52;8.70;;;15.60;74.20;;;;;;5050706;28;20047;-41
2021/04/01 04:35:57;;;;;;;11.00;7.10;;;15.60;74.30;;;;;;5050876;28;20535;-41
2021/04/01 04:38:24;;;;;;;10.43;7.68;;;15.60;74.30;;;;;;5050234;28;20075;-45
2021/04/01 04:40:54;;;;;;;10.90;8.50;;;15.60;74.30;;;;;;5050302;28;20068;-41
2021/04/01 04:43:20;;;;;;;11.75;7.97;;;15.60;74.30;;;;;;5030809;28;20088;-41
2021/04/01 04:45:46;;;;;;;10.43;7.90;;;15.60;74.90;;;;;;5074867;28;20048;-41
2021/04/01 04:48:11;;;;;;;11.32;7.97;;;15.60;74.30;;;;;;5113503;28;20050;-41
2021/04/01 04:50:37;;;;;;;10.80;7.47;;;15.60;74.30;;;;;;5113652;28;20494;-42
2021/04/01 04:53:03;;;;;;;10.50;7.65;;;15.60;74.30;;;;;;5113124;28;20498;-42
2021/04/01 04:55:29;;;;;;;13.00;9.02;;;15.60;74.30;;;;;;5112968;28;20043;-41
2021/04/01 05:05:36;;;;;;;11.90;8.00;;;15.50;74.30;;;;;;5112409;28;20054;-40
2021/04/01 05:08:03;;;;;;;11.88;8.43;;;15.50;74.30;;;;;;5112301;28;20039;-42
2021/04/01 05:10:29;;;;;;;11.35;7.13;;;15.60;74.40;;;;;;5113019;28;20075;-41
2021/04/01 05:13:15;;;;;;;11.70;8.15;;;15.50;74.30;;;;;;5112804;28;20082;-41
2021/04/01 05:15:49;;;;;;;11.32;7.57;;;15.60;74.40;;;;;;5112371;28;20134;-42
2021/04/01 05:18:26;;;;;;;11.23;8.10;;;15.50;74.40;;;;;;5116604;28;20123;-41
2021/04/01 05:20:53;;;;;;;10.27;7.68;;;15.50;74.30;;;;;;5116810;28;20055;-42
2021/04/01 05:25:47;;;;;;;12.27;8.50;;;15.50;74.40;;;;;;5116615;28;20133;-44
2021/04/01 05:28:25;;;;;;;12.27;7.75;;;15.50;74.40;;;;;;5117110;28;20051;-44
2021/04/01 05:30:51;;;;;;;10.70;7.53;;;15.50;74.40;;;;;;5116869;28;20494;-39
2021/04/01 05:33:18;;;;;;;12.65;8.13;;;15.60;74.40;;;;;;5117212;28;20173;-42
2021/04/01 05:35:43;;;;;;;13.32;7.88;;;15.60;74.40;;;;;;5116960;28;20048;-42
2021/04/01 05:38:10;;;;;;;11.60;7.82;;;15.50;74.30;;;;;;5116955;28;20411;-42
2021/04/01 05:40:36;;;;;;;9.77;7.28;;;15.50;74.40;;;;;;5116827;28;20090;-38
2021/04/01 05:43:06;;;;;;;10.60;7.65;;;15.50;74.40;;;;;;5116451;28;20075;-39
2021/04/01 05:48:03;;;;;;;9.98;7.28;;;15.50;74.40;;;;;;5116774;28;20368;-39
2021/04/01 05:59:03;;;;;;;8.77;6.77;;;15.50;74.40;;;;;;5116437;28;20091;-42
2021/04/01 06:04:08;;;;;;;13.07;7.47;;;15.50;74.40;;;;;;5116400;28;20105;-42
2021/04/01 06:09:10;;;;;;;10.63;7.10;;;15.50;74.40;;;;;;5116442;28;20082;-41
2021/04/01 06:11:36;;;;;;;8.85;6.38;;;15.50;74.40;;;;;;5116129;28;20047;-40
2021/04/01 06:14:13;;;;;;;8.60;6.30;;;15.50;74.40;;;;;;5116491;28;20082;-43
2021/04/01 06:16:41;;;;;;;8.73;6.15;;;15.50;74.40;;;;;;5116244;28;20467;-40
2021/04/01 06:19:09;;;;;;;9.65;6.70;;;15.50;74.40;;;;;;5116231;28;20130;-41
2021/04/01 06:21:44;;;;;;;10.07;6.72;;;15.50;74.40;;;;;;5115843;28;20059;-41
2021/04/01 06:24:29;;;;;;;9.30;6.22;;;15.50;74.40;;;;;;5116419;28;20122;-40
2021/04/01 06:27:03;;;;;;;9.55;6.68;;;15.50;74.40;;;;;;5115911;28;20063;-44
2021/04/01 06:29:31;;;;;;;8.07;5.93;;;15.30;74.40;;;;;;5116009;28;20044;-40
2021/04/01 06:32:01;;;;;;;8.48;6.03;;;15.50;74.40;;;;;;5116182;28;20055;-42
2021/04/01 06:34:41;;;;;;;9.07;6.20;;;15.50;74.50;;;;;;5116220;28;20122;-41
2021/04/01 06:37:24;;;;;;;10.07;6.30;;;15.50;74.50;;;;;;5115985;27;20053;-41
2021/04/01 06:40:02;;;;;;;8.30;5.70;;;15.50;74.50;;;;;;5115660;28;20110;-41
2021/04/01 06:42:47;;;;;;;8.07;5.53;;;15.50;74.50;;;;;;5115531;28;20509;-41
2021/04/01 06:45:18;;;;;;;8.52;5.72;;;15.40;74.50;;;;;;5115710;28;20551;-41
2021/04/01 06:47:49;;;;;;;7.72;6.03;;;15.30;74.40;;;;;;5116115;27;20104;-41
2021/04/01 06:50:23;;;;;;;7.28;5.32;;;15.30;74.40;;;;;;5115671;28;20043;-42
2021/04/01 06:53:56;;;;;;;7.30;5.03;;;15.40;74.50;;;;;;5115884;28;20044;-40
2021/04/01 06:56:14;;;;;;;9.10;5.45;;;15.40;74.50;;;;;;5101981;28;20058;-40
2021/04/01 06:58:59;;;;;;;7.68;4.88;;;15.40;74.50;;;;;;5115072;28;20052;-41
2021/04/01 07:04:05;;;;;;;8.93;5.32;;;15.40;74.50;;;;;;5115102;28;20044;-41
2021/04/01 07:06:36;;;;;;;7.25;4.82;;;15.30;74.40;;;;;;5115533;28;20051;-41
2021/04/01 07:12:16;;;;;;;6.45;4.82;;;15.40;74.50;;;;;;5115431;28;20448;-43
2021/04/01 07:14:43;;;;;;;7.45;4.50;;;15.40;74.60;;;;;;5114981;28;20051;-43
2021/04/01 07:17:21;;;;;;;7.68;4.78;;;15.40;74.50;;;;;;5115152;28;20131;-42
2021/04/01 07:22:40;;;;;;;5.88;4.15;;;15.40;74.50;;;;;;5115323;28;20048;-41
2021/04/01 07:47:22;;;;;;;7.18;4.40;;;15.40;74.60;;;;;;5114556;28;20040;-40
2021/04/01 07:49:51;;;;;;;7.57;3.72;;;15.40;74.60;;;;;;5114886;28;20051;-39
2021/04/01 07:52:30;;;;;;;6.78;4.20;;;15.50;74.60;;;;;;5114559;28;20070;-39
2021/04/01 08:03:03;;;;;;;7.18;3.60;;;15.40;74.60;;;;;;5114211;28;20048;-39
2021/04/01 08:05:32;;;;;;;5.35;3.70;;;15.40;74.60;;;;;;5114524;28;20051;-39
2021/04/01 08:08:01;;;;;;;6.32;4.07;;;15.40;74.60;;;;;;5114370;28;20146;-41
2021/04/01 08:10:31;;;;;;;6.30;3.40;;;15.40;74.60;;;;;;5114210;28;20044;-39
2021/04/01 08:13:06;;;;;;;6.22;3.63;;;15.40;74.60;;;;;;5114345;28;20051;-39
2021/04/01 08:15:40;;;;;;;4.20;2.90;;;15.40;74.60;;;;;;5113945;28;20103;-39
2021/04/01 08:21:07;;;;;;;4.85;3.33;;;15.40;74.60;;;;;;5071143;28;20554;-39
2021/04/01 08:23:39;;;;;;;5.35;3.22;;;15.40;74.60;;;;;;5070729;28;20044;-39
2021/04/01 08:29:44;;;;;;;5.50;3.38;;;15.40;74.60;;;;;;5069232;28;20545;-39
2021/04/01 08:34:49;;;;;;;5.45;3.72;;;15.40;74.60;;;;;;5069329;28;20186;-41
2021/04/01 08:37:16;;;;;;;4.82;3.08;;;15.40;74.60;;;;;;5070072;28;20057;-37
2021/04/01 08:39:45;;;;;;;7.22;2.90;;;15.40;74.60;;;;;;5070251;28;20045;-42
2021/04/01 08:42:43;;;;;;;8.05;3.70;;;15.30;74.50;;;;;;5069525;28;20063;-40
2021/04/01 08:45:30;;;;;;;3.92;3.03;;;15.40;74.60;;;;;;5070299;28;20602;-41
2021/04/01 08:48:20;;;;;;;6.50;3.33;;;15.40;74.50;;;;;;5068847;28;20052;-41
2021/04/01 08:51:06;;;;;;;4.57;2.60;;;15.40;74.50;;;;;;5070152;28;20175;-40
2021/04/01 08:53:38;;;;;;;3.75;2.60;;;15.40;74.50;;;;;;5069891;28;20083;-40
2021/04/01 08:56:23;;;;;;;5.82;3.03;;;15.40;74.50;;;;;;5069117;28;20048;-39
2021/04/01 08:59:21;;;;;;;4.20;3.30;;;15.40;74.50;;;;;;5107805;28;20071;-41
2021/04/01 09:01:51;;;;;;;4.13;2.67;;;15.40;74.50;;;;;;5112975;28;20043;-42
2021/04/01 09:04:26;;;;;;;6.90;2.78;;;15.40;74.50;;;;;;5111985;28;20047;-40
2021/04/01 09:07:13;;;;;;;3.85;2.25;;;15.40;74.50;;;;;;5113390;28;20054;-42
2021/04/01 09:09:41;;;;;;;4.40;2.85;;;15.40;74.50;;;;;;5113050;28;20048;-39
2021/04/01 09:15:06;;;;;;;6.03;2.50;;;15.40;74.50;;;;;;5113114;28;20134;-41
2021/04/01 09:17:33;;;;;;;5.05;2.60;;;15.40;74.40;;;;;;5112573;28;20052;-39
2021/04/01 09:20:36;;;;;;;4.47;2.40;;;15.40;74.40;;;;;;5113086;28;20070;-40
2021/04/01 09:23:08;;;;;;;5.18;2.53;;;15.40;74.40;;;;;;5108358;28;20503;-39
2021/04/01 09:25:39;;;;;;;4.65;2.45;;;15.40;74.50;;;;;;5111703;28;20039;-40
2021/04/01 09:28:08;;;;;;;4.22;2.50;;;15.40;74.40;;;;;;5112642;28;20047;-40
2021/04/01 09:30:34;;;;;;;4.82;2.10;;;15.40;74.40;;;;;;5113026;28;20115;-41
2021/04/01 09:33:31;;;;;;;4.25;2.42;;;15.50;74.40;;;;;;5111521;28;20488;-41
2021/04/01 09:36:18;;;;;;;4.25;2.30;;;15.40;74.40;;;;;;5112660;28;20066;-41
2021/04/01 09:39:03;;;;;;;6.38;2.70;;;15.40;74.40;;;;;;5112452;28;20051;-41
2021/04/01 09:41:32;;;;;;;4.05;2.40;;;15.40;74.40;;;;;;5111781;28;20066;-39
2021/04/01 09:44:08;;;;;;;5.32;2.40;;;15.40;74.40;;;;;;5112191;28;20104;-38
2021/04/01 09:46:36;;;;;;;3.60;2.33;;;15.40;74.40;;;;;;5112081;28;20051;-41
2021/04/01 09:49:11;;;;;;;3.53;2.30;;;15.40;74.40;;;;;;5111067;28;20043;-39
2021/04/01 09:51:40;;;;;;;3.85;2.28;;;15.40;74.40;;;;;;5112970;28;20049;-42
2021/04/01 09:54:14;;;;;;;5.47;2.25;;;15.40;74.40;;;;;;5112754;28;20043;-37
2021/04/01 09:56:40;;;;;;;2.83;2.10;;;15.40;74.40;;;;;;5111807;28;20475;-40
2021/04/01 09:59:06;;;;;;;4.30;2.15;;;15.40;74.40;;;;;;5112565;28;20047;-41
2021/04/01 10:01:35;;;;;;;3.35;2.25;;;15.50;74.40;;;;;;5112401;28;20048;-37
2021/04/01 10:04:20;;;;;;;4.97;2.10;;;15.50;74.40;;;;;;5115575;28;20149;-41
2021/04/01 10:06:51;;;;;;;4.30;2.15;;;15.50;74.40;;;;;;5115866;28;20040;-37
2021/04/01 10:09:19;;;;;;;3.28;2.17;;;15.50;74.40;;;;;;5115002;28;20518;-39
2021/04/01 10:11:57;;;;;;;3.42;1.95;;;15.50;74.40;;;;;;5116568;28;20090;-36
2021/04/01 10:14:23;;;;;;;2.63;1.85;;;15.40;74.30;;;;;;5116375;28;20122;-39
2021/04/01 10:16:57;;;;;;;3.25;2.30;;;15.50;74.40;;;;;;5116385;28;20123;-38
2021/04/01 10:19:37;;;;;;;4.90;1.75;;;15.50;74.40;;;;;;5116286;28;20395;-42
2021/04/01 10:22:03;;;;;;;6.57;2.17;;;15.50;74.40;;;;;;5115990;28;20042;-39
2021/04/01 10:24:33;;;;;;;3.13;1.90;;;15.50;74.30;;;;;;5095729;28;20495;-39
2021/04/01 10:32:12;;;;;;;3.00;1.70;;;15.50;74.30;;;;;;5095624;28;20052;-39
2021/04/01 10:34:53;;;;;;;2.78;1.83;;;15.50;74.30;;;;;;5113432;28;20442;-41
2021/04/01 10:37:25;;;;;;;2.75;1.70;;;15.60;74.30;;;;;;5116214;28;20120;-39
2021/04/01 10:39:51;;;;;;;2.28;1.90;;;15.60;74.30;;;;;;5115993;28;20407;-38
2021/04/01 10:42:31;;;;;;;3.00;2.03;;;15.50;74.20;;;;;;5115527;28;20040;-41
2021/04/01 10:45:02;;;;;;;3.75;1.92;;;15.60;74.30;;;;;;5115229;28;20065;-41
2021/04/01 10:47:39;;;;;;;2.95;1.50;;;15.60;74.30;;;;;;5104336;28;20047;-38
2021/04/01 10:50:07;;;;;;;4.78;1.80;;;15.60;74.20;;;;;;5115775;28;20043;-40
2021/04/01 10:52:33;;;;;;;1.98;1.70;;;15.60;74.20;;;;;;5115786;28;20044;-41
2021/04/01 10:54:59;;;;;;;3.58;1.40;;;15.50;74.20;;;;;;5115637;28;20487;-38
2021/04/01 10:57:30;;;;;;;4.18;1.90;;;15.60;74.20;;;;;;5115512;28;20456;-39
2021/04/01 10:59:59;;;;;;;3.47;1.80;;;15.60;74.20;;;;;;5115537;28;20514;-39
2021/04/01 11:02:34;;;;;;;2.55;1.50;;;15.60;74.20;;;;;;5115902;28;20048;-39
2021/04/01 11:05:15;;;;;;;;;;;15.70;74.20;;;;;;5115839;28;20556;-39
2021/04/01 11:07:48;;;;;;;3.30;2.00;;;15.60;74.20;;;;;;5114987;28;19943;-40
2021/04/01 11:10:22;;;;;;;2.17;1.45;;;15.50;74.10;;;;;;5115195;28;20070;-41
2021/04/01 11:12:53;;;;;;;3.30;1.63;;;15.60;74.10;;;;;;5115254;28;20135;-39
2021/04/01 11:15:25;;;;;;;3.38;1.60;;;15.60;74.10;;;;;;5113818;28;20048;-41
2021/04/01 11:17:57;;;;;;;3.25;1.63;;;15.70;74.10;;;;;;5115171;28;20043;-40
2021/04/01 11:20:25;;;;;;;3.90;1.65;;;15.60;74.10;;;;;;5115202;28;20043;-39
2021/04/01 11:23:08;;;;;;;3.88;1.63;;;15.70;74.10;;;;;;5114858;28;20086;-41
2021/04/01 11:25:36;;;;;;;4.03;1.60;;;15.70;74.10;;;;;;5114793;28;20048;-42
2021/04/01 11:28:03;;;;;;;3.53;1.50;;;15.70;74.00;;;;;;5114755;28;20040;-42
2021/04/01 11:30:41;;;;;;;2.92;1.58;;;15.70;74.00;;;;;;5114978;28;20143;-42
2021/04/01 11:33:07;;;;;;;2.22;1.48;;;15.70;74.00;;;;;;5115046;28;20086;-42
2021/04/01 11:35:35;;;;;;;1.90;1.40;;;15.80;74.00;;;;;;5115014;28;20138;-41
2021/04/01 11:38:04;;;;;;;7.40;2.78;;;15.70;74.60;;;;;;5114562;28;20086;-42
2021/04/01 11:40:29;;;;;;;9.73;2.85;;;15.70;72.50;;;;;;5114502;28;20518;-43
2021/04/01 11:43:03;;;;;;;8.15;2.72;;;15.60;72.30;;;;;;5114792;28;20044;-44
2021/04/01 11:45:37;;;;;;;6.75;2.55;;;15.50;72.00;;;;;;5114781;28;20063;-42
2021/04/01 11:48:05;;;;;;;7.25;2.83;;;15.50;71.70;;;;;;5114877;28;20040;-43
2021/04/01 11:50:32;;;;;;;9.60;2.40;;;15.60;71.50;;;;;;5114239;28;20055;-40
2021/04/01 11:53:01;;;;;;;5.70;2.33;;;15.50;71.40;;;;;;5114168;28;20047;-42
2021/04/01 11:55:30;;;;;;;7.80;2.50;;;15.60;71.30;;;;;;5114516;28;20092;-43
2021/04/01 11:57:56;;;;;;;9.50;2.40;;;15.60;71.40;;;;;;5114535;27;20371;-40
2021/04/01 12:00:28;;;;;;;7.72;2.15;;;15.60;71.40;;;;;;5114640;28;20051;-42
2021/04/01 12:03:00;;;;;;;4.70;2.72;;;15.70;71.60;;;;;;5114696;28;20044;-40
2021/04/01 12:05:29;;;;;;;5.13;2.75;;;15.70;71.70;;;;;;5114602;28;20047;-42
2021/04/01 12:07:56;;;;;;;6.50;1.95;;;15.60;71.70;;;;;;5114039;28;20464;-41
2021/04/01 12:10:22;;;;;;;5.70;1.98;;;15.70;71.80;;;;;;5114222;28;20055;-43
2021/04/01 12:12:53;;;;;;;4.38;1.73;;;15.70;71.90;;;;;;5114122;28;20050;-43
2021/04/01 12:15:36;;;;;;;7.55;1.90;;;15.70;72.00;;;;;;5114540;28;20168;-43
2021/04/01 12:18:04;;;;;;;3.97;1.80;;;15.70;72.10;;;;;;5114171;28;20427;-40
2021/04/01 12:20:32;;;;;;;5.43;1.92;;;15.80;72.20;;;;;;5114160;28;20078;-41
2021/04/01 12:23:09;;;;;;;3.28;1.80;;;15.80;72.30;;;;;;5113650;27;20048;-43
2021/04/01 12:25:35;;;;;;;4.25;1.63;;;15.80;72.30;;;;;;5113949;28;20116;-39
2021/04/01 12:28:00;;;;;;;4.18;2.00;;;15.80;72.30;;;;;;5113844;28;20487;-40
2021/04/01 12:30:35;;;;;;;5.88;1.98;;;15.80;72.30;;;;;;5113745;28;20088;-41
2021/04/01 12:33:06;;;;;;;3.95;1.50;;;15.90;72.40;;;;;;5113822;28;20048;-43
2021/04/01 12:35:32;;;;;;;4.95;1.88;;;15.80;72.40;;;;;;5113941;28;20055;-41
2021/04/01 12:38:02;;;;;;;7.95;2.10;;;15.90;72.40;;;;;;5113844;28;20384;-41
2021/04/01 12:40:35;;;;;;;6.13;2.33;;;15.90;72.40;;;;;;5113408;28;20134;-42
2021/04/01 12:43:08;;;;;;;4.50;2.00;;;15.90;72.50;;;;;;5113682;28;20045;-43
2021/04/01 12:45:36;;;;;;;3.88;1.48;;;15.90;72.50;;;;;;5092719;28;20052;-41
2021/04/01 12:48:15;;;;;;;3.22;1.55;;;15.90;72.50;;;;;;5088838;28;20052;-44
2021/04/01 12:50:44;;;;;;;4.95;1.73;;;15.90;72.50;;;;;;5087604;28;20500;-40
2021/04/01 12:53:10;;;;;;;12.00;2.15;;;15.60;67.50;;;;;;5088516;28;20442;-43
2021/04/01 12:58:38;;;;;;;5.88;2.08;;;14.00;67.30;;;;;;5088302;28;20052;-41
2021/04/01 13:04:11;;;;;;;5.75;2.67;;;13.60;69.10;;;;;;5024869;28;20050;-40
2021/04/01 13:06:58;;;;;;;5.05;2.00;;;13.60;69.40;;;;;;5024990;28;20053;-42
2021/04/01 13:12:11;;;;;;;5.13;1.50;;;13.90;69.80;;;;;;5025375;28;20052;-41
2021/04/01 13:14:37;;;;;;;4.20;1.70;;;14.00;70.00;;;;;;5024616;28;20054;-40
2021/04/01 13:17:03;;;;;;;5.32;1.50;;;14.10;70.20;;;;;;5025070;28;20099;-43
2021/04/01 13:19:29;;;;;;;5.53;1.80;;;14.20;70.30;;;;;;5024606;28;20500;-42
2021/04/01 13:22:08;;;;;;;2.85;1.50;;;14.30;70.40;;;;;;5025177;28;20486;-41
2021/04/01 13:27:07;;;;;;;3.00;1.45;;;14.50;70.70;;;;;;5024749;28;20045;-39
2021/04/01 13:29:35;;;;;;;5.03;1.90;;;14.50;70.70;;;;;;5024777;28;20077;-39
2021/04/01 13:32:13;;;;;;;4.60;1.65;;;14.60;70.80;;;;;;5025074;28;20491;-40
2021/04/01 13:40:03;;;;;;;4.00;1.50;;;14.80;71.00;;;;;;4992324;28;20042;-40
2021/04/01 13:42:34;;;;;;;2.65;1.42;;;14.80;71.00;;;;;;5028311;28;20061;-40
2021/04/01 13:45:07;;;;;;;4.72;1.50;;;14.90;71.10;;;;;;5028748;28;20083;-39
2021/04/01 13:47:36;;;;;;;4.07;1.30;;;14.90;71.10;;;;;;5028145;28;20133;-39
2021/04/01 13:50:02;;;;;;;3.33;1.60;;;15.00;71.10;;;;;;5028541;28;20086;-40
2021/04/01 13:55:06;;;;;;;3.25;1.40;;;15.00;71.10;;;;;;5028700;28;20053;-39
2021/04/01 14:08:58;;;;;;;3.72;1.67;;;15.20;71.30;;;;;;5028346;28;20049;-41
2021/04/01 14:11:26;;;;;;;2.15;1.20;;;15.20;71.30;;;;;;5027626;28;20517;-40
2021/04/01 14:13:51;;;;;;;2.10;1.00;;;15.20;71.30;;;;;;5028104;28;20100;-42
2021/04/01 14:16:19;;;;;;;3.08;1.15;;;15.20;71.30;;;;;;5045870;28;20048;-41
2021/04/01 14:18:48;;;;;;;2.65;1.42;;;15.20;71.30;;;;;;5091162;28;20518;-42
2021/04/01 14:21:17;;;;;;;3.50;1.45;;;15.20;71.40;;;;;;5091180;28;20051;-40
2021/04/01 14:23:44;;;;;;;2.88;1.30;;;15.20;71.40;;;;;;5091265;28;20036;-40
2021/04/01 14:26:17;;;;;;;2.97;1.35;;;15.30;71.40;;;;;;5091946;28;20043;-40
2021/04/01 14:28:43;;;;;;;1.75;1.25;;;15.30;71.40;;;;;;5101864;28;20048;-40
2021/04/01 14:31:10;;;;;;;2.47;1.33;;;15.30;71.40;;;;;;5110488;28;20385;-39
2021/04/01 14:33:38;;;;;;;2.13;1.27;;;15.30;71.40;;;;;;5109671;28;20054;-40
2021/04/01 14:36:05;;;;;;;2.75;1.50;;;15.30;71.50;;;;;;5110725;28;20395;-39
2021/04/01 14:38:34;;;;;;;2.63;1.55;;;15.30;71.50;;;;;;5109590;28;20057;-40
2021/04/01 14:41:09;;;;;;;1.83;1.13;;;15.30;71.50;;;;;;5110393;28;20043;-39
2021/04/01 14:46:02;;;;;;;3.55;1.38;;;15.30;71.50;;;;;;5110198;28;20411;-40
2021/04/01 14:48:28;;;;;;;2.42;1.30;;;15.30;71.50;;;;;;5109156;28;20515;-39
2021/04/01 14:50:54;;;;;;;3.30;1.27;;;15.40;71.60;;;;;;5110374;28;20149;-39
2021/04/01 14:55:55;;;;;;;2.55;1.05;;;15.40;71.70;;;;;;5108662;28;20044;-39
2021/04/01 14:58:21;;;;;;;2.38;1.30;;;15.40;71.70;;;;;;5108605;28;20809;-39
2021/04/01 15:00:51;;;;;;;1.38;0.80;;;15.40;71.70;;;;;;5109672;28;20499;-40
2021/04/01 15:03:17;;;;;;;2.38;1.30;;;15.40;71.70;;;;;;5111136;28;20039;-41
2021/04/01 15:05:44;;;;;;;1.63;1.10;;;15.40;71.70;;;;;;5110416;28;20427;-40
2021/04/01 15:08:10;;;;;;;3.08;1.15;;;15.40;71.80;;;;;;5113845;28;20043;-40
2021/04/01 15:10:36;;;;;;;1.73;0.95;;;15.40;71.80;;;;;;5113013;28;20411;-42
2021/04/01 15:13:03;;;;;;;2.97;1.05;;;15.40;71.80;;;;;;5110274;28;20039;-41